createdAt,value
2023-01-30T00:04:16.824Z,0.16
2023-01-30T00:06:43.888Z,0.13
2023-01-30T00:09:14.973Z,0.12
2023-01-30T00:11:42.509Z,-0.06
2023-01-30T00:14:09.208Z,0.01
2023-01-30T00:47:48.688Z,-0.12
2023-01-30T00:50:15.549Z,-0.24
2023-01-30T00:52:42.110Z,-0.39
2023-01-30T00:55:09.110Z,-0.34
2023-01-30T00:57:36.864Z,-0.32
2023-01-30T01:00:05.462Z,-0.21
2023-01-30T01:02:32.065Z,-0.18
2023-01-30T01:04:58.608Z,-0.11
2023-01-30T01:07:25.161Z,-0.10
2023-01-30T01:09:51.703Z,-0.10
2023-01-30T01:12:18.271Z,-0.12
2023-01-30T01:14:44.865Z,-0.30
2023-01-30T01:17:21.014Z,-0.21
2023-01-30T01:19:47.577Z,-0.20
2023-01-30T01:22:14.161Z,-0.37
2023-01-30T01:24:40.695Z,-0.32
2023-01-30T01:27:35.532Z,-0.35
2023-01-30T01:30:15.259Z,-0.22
2023-01-30T01:47:09.513Z,-0.34
2023-01-30T01:49:37.467Z,-0.42
2023-01-30T01:52:06.711Z,-0.41
2023-01-30T01:54:45.504Z,-0.41
2023-01-30T01:57:43.140Z,-0.41
2023-01-30T02:17:51.712Z,-0.64
2023-01-30T02:20:32.270Z,-0.64
2023-01-30T02:22:58.759Z,-0.73
2023-01-30T02:25:45.447Z,-0.85
2023-01-30T02:29:15.024Z,-1.04
2023-01-30T02:32:25.702Z,-0.99
2023-01-30T02:35:04.334Z,-0.87
2023-01-30T02:37:42.666Z,-0.82
2023-01-30T02:40:44.078Z,-0.85
2023-01-30T02:43:27.607Z,-1.03
2023-01-30T03:00:33.291Z,-1.04
2023-01-30T03:03:08.498Z,-0.91
2023-01-30T03:05:55.861Z,-0.85
2023-01-30T03:08:51.529Z,-0.80
2023-01-30T03:11:18.402Z,-0.80
2023-01-30T03:13:53.813Z,-0.80
2023-01-30T03:16:40.545Z,-0.91
2023-01-30T03:19:12.558Z,-1.13
2023-01-30T03:21:44.698Z,-1.13
2023-01-30T03:24:12.824Z,-1.11
2023-01-30T03:27:22.413Z,-1.19
2023-01-30T03:30:09.110Z,-1.22
2023-01-30T03:32:35.692Z,-1.36
2023-01-30T03:35:04.651Z,-1.38
2023-01-30T03:37:31.525Z,-1.44
2023-01-30T03:39:58.955Z,-1.65
2023-01-30T03:42:25.629Z,-1.49
2023-01-30T04:17:01.615Z,-1.50
2023-01-30T04:19:28.242Z,-1.54
2023-01-30T04:21:54.854Z,-1.40
2023-01-30T04:24:21.397Z,-1.27
2023-01-30T04:26:48.004Z,-1.13
2023-01-30T04:29:14.619Z,-1.16
2023-01-30T04:55:08.986Z,-1.17
2023-01-30T04:57:35.656Z,-1.16
2023-01-30T05:00:02.242Z,-1.15
2023-01-30T05:02:28.789Z,-1.25
2023-01-30T05:27:40.609Z,-1.15
2023-01-30T05:30:08.047Z,-1.18
2023-01-30T05:32:37.030Z,-1.18
2023-01-30T05:35:03.793Z,-1.27
2023-01-30T05:37:30.439Z,-1.21
2023-01-30T06:57:01.676Z,-1.90
2023-01-30T06:59:28.353Z,-1.39
2023-01-30T07:01:55.034Z,-1.10
2023-01-30T07:04:21.801Z,-0.93
2023-01-30T07:06:48.604Z,-0.70
2023-01-30T07:09:15.328Z,-0.51
2023-01-30T07:11:41.911Z,-0.37
2023-01-30T07:14:10.004Z,-0.19
2023-01-30T07:16:37.300Z,-0.50
2023-01-30T07:19:03.865Z,-0.20
2023-01-30T07:21:30.432Z,-0.83
2023-01-30T07:23:57.798Z,-0.39
2023-01-30T07:26:25.665Z,-0.77
2023-01-30T07:28:52.313Z,-0.54
2023-01-30T07:31:19.012Z,-0.99
2023-01-30T07:33:45.648Z,-1.37
2023-01-30T07:36:12.222Z,-1.34
2023-01-30T07:38:38.963Z,-0.73
2023-01-30T07:41:05.735Z,-0.52
2023-01-30T07:43:32.342Z,-0.76
2023-01-30T07:46:00.522Z,-0.43
2023-01-30T07:48:27.065Z,-0.10
2023-01-30T07:50:56.807Z,0.24
2023-01-30T07:53:23.428Z,0.36
2023-01-30T07:55:50.031Z,0.39
2023-01-30T07:58:16.936Z,0.44
2023-01-30T08:00:44.558Z,0.62
2023-01-30T08:03:15.917Z,0.84
2023-01-30T08:05:44.232Z,1.20
2023-01-30T08:08:11.044Z,1.26
2023-01-30T08:10:37.623Z,1.32
2023-01-30T08:13:04.361Z,1.48
2023-01-30T08:15:32.928Z,1.30
2023-01-30T08:17:59.920Z,1.50
2023-01-30T08:20:27.760Z,1.66
2023-01-30T08:22:55.310Z,1.69
2023-01-30T08:25:23.011Z,1.71
2023-01-30T08:27:49.717Z,1.12
2023-01-30T08:30:16.968Z,1.44
2023-01-30T08:32:48.745Z,1.70
2023-01-30T08:35:15.531Z,1.59
2023-01-30T08:37:42.708Z,1.91
2023-01-30T08:40:10.662Z,2.22
2023-01-30T09:45:06.917Z,3.14
2023-01-30T09:48:02.629Z,3.35
2023-01-30T09:50:51.702Z,3.42
2023-01-30T09:53:39.222Z,3.26
2023-01-30T09:56:05.971Z,3.40
2023-01-30T09:58:44.564Z,3.34
2023-01-30T10:01:23.480Z,3.54
2023-01-30T10:04:03.758Z,3.34
2023-01-30T10:06:36.033Z,3.13
2023-01-30T10:09:13.492Z,3.24
2023-01-30T10:11:47.852Z,3.50
2023-01-30T10:14:53.549Z,3.22
2023-01-30T10:17:38.309Z,2.85
2023-01-30T10:20:32.793Z,2.97
2023-01-30T10:23:48.886Z,3.23
2023-01-30T10:26:20.022Z,3.54
2023-01-30T10:29:06.719Z,3.62
2023-01-30T10:31:47.558Z,3.90
2023-01-30T10:34:25.700Z,4.01
2023-01-30T10:37:04.291Z,4.13
2023-01-30T10:39:55.900Z,4.26
2023-01-30T10:42:48.504Z,4.15
2023-01-30T10:45:23.217Z,3.73
2023-01-30T10:47:59.712Z,3.75
2023-01-30T10:50:40.519Z,3.91
2023-01-30T10:53:35.948Z,3.84
2023-01-30T10:56:22.627Z,4.24
2023-01-30T10:58:58.919Z,4.43
2023-01-30T11:01:44.237Z,4.57
2023-01-30T11:04:31.068Z,4.30
2023-01-30T11:07:00.764Z,3.85
2023-01-30T11:09:53.648Z,4.35
2023-01-30T11:12:20.220Z,3.74
2023-01-30T11:15:05.438Z,4.17
2023-01-30T11:17:39.784Z,4.00
2023-01-30T11:20:19.253Z,4.34
2023-01-30T11:23:07.469Z,4.10
2023-01-30T11:25:52.827Z,4.11
2023-01-30T11:28:27.093Z,3.73
2023-01-30T11:30:59.960Z,4.25
2023-01-30T11:33:36.430Z,3.69
2023-01-30T11:36:06.976Z,3.57
2023-01-30T11:38:40.333Z,3.80
2023-01-30T11:41:09.921Z,3.90
2023-01-30T11:43:39.840Z,3.78
2023-01-30T11:46:08.964Z,3.74
2023-01-30T11:49:02.372Z,3.83
2023-01-30T11:51:37.534Z,4.12
2023-01-30T11:54:06.122Z,4.31
2023-01-30T11:56:36.141Z,4.36
2023-01-30T11:59:06.590Z,3.96
2023-01-30T12:01:37.169Z,4.21
2023-01-30T12:04:08.625Z,4.48
2023-01-30T12:06:37.617Z,4.45
2023-01-30T12:09:05.248Z,4.55
2023-01-30T12:11:40.245Z,4.02
2023-01-30T12:14:24.210Z,4.01
2023-01-30T12:17:09.653Z,3.96
2023-01-30T12:19:45.422Z,3.96
2023-01-30T12:22:30.882Z,3.92
2023-01-30T12:25:01.246Z,4.01
2023-01-30T12:27:55.283Z,3.95
2023-01-30T12:30:32.343Z,4.20
2023-01-30T12:36:01.591Z,4.08
2023-01-30T12:38:41.600Z,4.25
2023-01-30T12:41:08.101Z,4.11
2023-01-30T12:43:49.928Z,4.36
2023-01-30T12:46:19.336Z,4.15
2023-01-30T12:49:02.470Z,4.03
2023-01-30T12:51:52.898Z,4.37
2023-01-30T12:54:28.264Z,4.23
2023-01-30T12:57:02.485Z,4.44
2023-01-30T12:59:50.541Z,4.34
2023-01-30T13:02:51.674Z,4.12
2023-01-30T13:05:22.403Z,4.29
2023-01-30T13:08:03.155Z,4.76
2023-01-30T13:10:54.302Z,4.89
2023-01-30T13:13:23.799Z,4.66
2023-01-30T13:15:53.380Z,4.19
2023-01-30T13:18:43.062Z,4.24
2023-01-30T13:21:21.193Z,4.14
2023-01-30T13:24:22.239Z,4.08
2023-01-30T13:26:51.012Z,3.78
2023-01-30T13:29:33.008Z,4.05
2023-01-30T13:32:03.610Z,4.17
2023-01-30T13:34:40.955Z,4.15
2023-01-30T13:37:12.419Z,3.94
2023-01-30T13:39:57.093Z,3.67
2023-01-30T13:42:38.766Z,4.21
2023-01-30T13:45:07.070Z,3.93
2023-01-30T13:47:52.873Z,4.12
2023-01-30T13:50:35.907Z,3.89
2023-01-30T13:53:22.757Z,4.21
2023-01-30T14:15:42.420Z,4.29
2023-01-30T14:18:33.888Z,4.51
2023-01-30T14:21:20.434Z,4.36
2023-01-30T14:24:03.191Z,4.12
2023-01-30T14:26:48.247Z,4.15
2023-01-30T14:29:40.963Z,4.14
2023-01-30T14:32:19.021Z,3.90
2023-01-30T14:34:48.042Z,4.10
2023-01-30T14:37:39.385Z,3.83
2023-01-30T14:40:21.163Z,4.39
2023-01-30T14:43:12.657Z,4.28
2023-01-30T14:45:49.247Z,4.06
2023-01-30T14:48:40.277Z,4.14
2023-01-30T14:51:39.791Z,4.06
2023-01-30T14:54:12.930Z,3.55
2023-01-30T14:57:00.277Z,3.82
2023-01-30T14:59:31.829Z,4.15
2023-01-30T15:02:21.796Z,4.04
2023-01-30T15:05:21.429Z,4.03
2023-01-30T15:08:04.664Z,3.96
2023-01-30T15:10:46.297Z,3.83
2023-01-30T15:13:40.969Z,3.45
2023-01-30T15:16:37.916Z,3.69
2023-01-30T15:19:29.285Z,3.80
2023-01-30T15:22:16.012Z,3.98
2023-01-30T15:25:26.303Z,3.92
2023-01-30T15:28:32.972Z,3.95
2023-01-30T15:31:18.000Z,3.96
2023-01-30T15:33:47.397Z,3.94
2023-01-30T15:36:26.875Z,3.81
2023-01-30T15:39:23.890Z,3.87
2023-01-30T15:41:52.746Z,4.08
2023-01-30T15:44:48.581Z,3.84
2023-01-30T15:47:29.056Z,4.11
2023-01-30T15:50:01.511Z,3.84
2023-01-30T15:52:50.612Z,4.00
2023-01-30T15:55:25.615Z,3.92
2023-01-30T15:57:59.421Z,3.99
2023-01-30T16:00:26.498Z,4.06
2023-01-30T16:02:54.284Z,3.96
2023-01-30T16:05:25.346Z,3.96
2023-01-30T16:07:53.959Z,4.03
2023-01-30T16:10:22.202Z,3.86
2023-01-30T16:12:50.768Z,3.92
2023-01-30T16:15:25.831Z,3.81
2023-01-30T16:18:21.663Z,3.76
2023-01-30T16:21:01.481Z,3.79
2023-01-30T16:23:38.760Z,3.86
2023-01-30T16:26:14.282Z,3.71
2023-01-30T16:28:41.062Z,3.80
2023-01-30T16:31:10.885Z,3.86
2023-01-30T16:33:38.247Z,3.74
2023-01-30T16:36:25.095Z,3.77
2023-01-30T16:38:53.993Z,3.88
2023-01-30T16:41:53.823Z,3.77
2023-01-30T16:44:25.420Z,3.65
2023-01-30T16:47:01.035Z,3.82
2023-01-30T16:49:30.553Z,3.73
2023-01-30T16:52:18.574Z,3.80
2023-01-30T16:55:06.882Z,3.45
2023-01-30T16:57:50.433Z,3.61
2023-01-30T17:00:24.709Z,3.42
2023-01-30T17:03:20.456Z,3.47
2023-01-30T17:05:49.425Z,3.36
2023-01-30T17:08:31.410Z,3.38
2023-01-30T17:10:59.474Z,3.46
2023-01-30T17:13:41.763Z,3.41
2023-01-30T17:16:23.741Z,3.37
2023-01-30T17:18:52.349Z,3.43
2023-01-30T17:21:20.796Z,3.42
2023-01-30T17:23:59.977Z,3.33
2023-01-30T17:26:27.003Z,3.10
2023-01-30T17:28:53.746Z,3.25
2023-01-30T17:31:21.145Z,3.35
2023-01-30T17:33:48.200Z,3.51
2023-01-30T17:36:24.072Z,3.44
2023-01-30T17:38:51.469Z,3.34
2023-01-30T17:41:27.073Z,3.46
2023-01-30T17:43:53.744Z,3.02
2023-01-30T17:46:24.104Z,3.30
2023-01-30T17:48:51.795Z,3.29
2023-01-30T17:51:18.447Z,3.14
2023-01-30T17:53:45.221Z,2.91
2023-01-30T17:56:39.291Z,3.34
2023-01-30T17:59:16.455Z,3.53
2023-01-30T18:01:45.207Z,3.29
2023-01-30T18:04:11.886Z,3.19
2023-01-30T18:06:41.178Z,3.36
2023-01-30T18:09:07.996Z,3.51
2023-01-30T18:11:34.584Z,3.64
2023-01-30T18:14:01.137Z,3.69
2023-01-30T18:16:33.076Z,3.81
2023-01-30T18:19:05.572Z,3.89
2023-01-30T18:21:34.060Z,3.70
2023-01-30T18:24:01.115Z,3.91
2023-01-30T18:26:30.100Z,3.87
2023-01-30T18:28:57.218Z,3.98
2023-01-30T18:31:25.361Z,4.04
2023-01-30T18:33:52.638Z,3.88
2023-01-30T18:36:21.143Z,3.86
2023-01-30T18:38:48.589Z,3.54
2023-01-30T18:41:18.020Z,3.50
2023-01-30T18:43:48.083Z,3.66
2023-01-30T18:46:17.431Z,3.26
2023-01-30T18:48:45.210Z,3.41
2023-01-30T18:51:14.684Z,3.26
2023-01-30T18:53:42.651Z,3.33
2023-01-30T18:56:14.703Z,3.35
2023-01-30T18:58:41.516Z,3.60
2023-01-30T19:01:16.197Z,3.51
2023-01-30T19:03:43.431Z,3.43
2023-01-30T19:06:13.072Z,3.76
2023-01-30T19:08:40.976Z,3.52
2023-01-30T19:11:29.427Z,3.72
2023-01-30T19:13:56.892Z,3.92
2023-01-30T19:16:25.487Z,3.43
2023-01-30T19:18:53.553Z,3.25
2023-01-30T19:21:20.758Z,3.48
2023-01-30T19:23:49.136Z,3.60
2023-01-30T19:26:17.134Z,3.02
2023-01-30T19:28:44.803Z,3.38
2023-01-30T19:31:16.155Z,3.57
2023-01-30T19:33:44.395Z,3.58
2023-01-30T19:36:16.880Z,3.67
2023-01-30T19:38:46.226Z,3.56
2023-01-30T19:41:30.671Z,3.51
2023-01-30T19:43:59.352Z,3.77
2023-01-30T19:46:26.807Z,3.68
2023-01-30T19:48:53.455Z,3.59
2023-01-30T19:51:21.208Z,3.54
2023-01-30T19:54:09.638Z,3.88
2023-01-30T19:56:39.220Z,3.90
2023-01-30T19:59:05.922Z,3.44
2023-01-30T20:01:36.961Z,3.58
2023-01-30T20:04:07.010Z,3.71
2023-01-30T20:06:35.200Z,3.64
2023-01-30T20:09:05.289Z,3.49
2023-01-30T20:11:34.524Z,3.72
2023-01-30T20:14:02.046Z,3.89
2023-01-30T20:16:31.284Z,3.74
2023-01-30T20:19:00.418Z,3.72
2023-01-30T20:21:29.029Z,3.47
2023-01-30T20:23:56.507Z,3.79
2023-01-30T20:26:31.068Z,3.89
2023-01-30T20:28:58.533Z,4.03
2023-01-30T20:31:27.463Z,4.22
2023-01-30T20:33:57.422Z,4.28
2023-01-30T20:36:26.711Z,4.32
2023-01-30T20:38:55.674Z,4.32
2023-01-30T20:41:24.913Z,4.38
2023-01-30T20:43:59.584Z,4.35
2023-01-30T20:46:28.510Z,4.15
2023-01-30T20:48:57.302Z,4.09
2023-01-30T20:51:29.390Z,4.16
2023-01-30T20:53:59.920Z,4.01
2023-01-30T20:56:31.666Z,4.09
2023-01-30T20:58:58.361Z,4.05
2023-01-30T21:01:24.961Z,4.08
2023-01-30T21:03:53.372Z,4.06
2023-01-30T21:06:37.097Z,3.91
2023-01-30T21:09:12.659Z,3.96
2023-01-30T21:11:40.324Z,3.96
2023-01-30T21:14:07.523Z,3.93
2023-01-30T21:16:35.883Z,3.90
2023-01-30T21:19:06.019Z,3.91
2023-01-30T21:21:42.838Z,3.95
2023-01-30T21:24:13.389Z,3.94
2023-01-30T21:26:45.935Z,3.68
2023-01-30T21:58:46.859Z,3.63
2023-01-30T22:29:39.763Z,3.29
2023-01-30T22:32:06.335Z,3.19
2023-01-30T22:34:35.783Z,3.23
2023-01-30T22:37:02.550Z,3.08
2023-01-30T22:40:00.287Z,3.12
2023-01-30T22:42:48.516Z,3.05
2023-01-30T22:45:15.144Z,3.17
2023-01-30T22:47:42.149Z,3.16
2023-01-30T22:50:09.325Z,3.02
2023-01-30T22:52:35.898Z,3.05
2023-01-30T22:55:02.548Z,3.04
2023-01-30T22:57:47.019Z,2.91
2023-01-30T23:00:13.946Z,2.95
2023-01-30T23:02:40.830Z,2.74
2023-01-30T23:05:07.841Z,2.86
2023-01-30T23:07:53.128Z,2.31
2023-01-30T23:10:41.651Z,2.59
2023-01-30T23:13:20.678Z,2.68
2023-01-30T23:15:48.269Z,2.80
2023-01-30T23:18:33.963Z,2.92
2023-01-30T23:21:00.987Z,2.79
2023-01-30T23:23:27.840Z,2.73
2023-01-30T23:25:54.455Z,2.73
2023-01-30T23:28:21.026Z,3.00
2023-01-30T23:30:47.638Z,2.81
2023-01-30T23:33:15.264Z,2.88
2023-01-30T23:35:41.824Z,2.63
2023-01-30T23:38:18.993Z,2.61
2023-01-30T23:40:47.088Z,2.85
2023-01-30T23:43:15.376Z,2.79
2023-01-30T23:45:42.256Z,2.93
2023-01-30T23:48:09.332Z,2.79
2023-01-30T23:50:38.724Z,2.80
2023-01-30T23:53:07.237Z,3.03
2023-01-30T23:55:33.805Z,3.23
2023-01-30T23:58:06.507Z,3.34
